sensor_id;sensor_type;location;lat;lon;timestamp;pressure;altitude;pressure_sealevel;temperature;humidity
79729;BME280;69218;52.132;5.418;2023-07-31T00:00:17;101073.06;;;15.87;87.24
79729;BME280;69218;52.132;5.418;2023-07-31T00:02:43;101066.78;;;15.88;87.40
79729;BME280;69218;52.132;5.418;2023-07-31T00:05:10;101070.19;;;15.80;87.40
79729;BME280;69218;52.132;5.418;2023-07-31T00:07:36;101057.63;;;15.82;88.43
79729;BME280;69218;52.132;5.418;2023-07-31T00:10:03;101052.50;;;15.81;88.37
79729;BME280;69218;52.132;5.418;2023-07-31T00:12:30;101047.38;;;15.79;88.17
79729;BME280;69218;52.132;5.418;2023-07-31T00:14:56;101040.13;;;15.81;89.04
79729;BME280;69218;52.132;5.418;2023-07-31T00:17:23;101027.06;;;15.80;89.17
79729;BME280;69218;52.132;5.418;2023-07-31T00:19:49;101027.56;;;15.83;89.26
79729;BME280;69218;52.132;5.418;2023-07-31T00:22:17;101021.16;;;15.86;90.01
79729;BME280;69218;52.132;5.418;2023-07-31T00:24:43;101024.47;;;15.88;87.84
79729;BME280;69218;52.132;5.418;2023-07-31T00:27:10;101020.53;;;15.92;88.43
79729;BME280;69218;52.132;5.418;2023-07-31T00:29:36;101024.69;;;15.95;88.78
79729;BME280;69218;52.132;5.418;2023-07-31T00:32:03;101025.00;;;15.91;88.89
79729;BME280;69218;52.132;5.418;2023-07-31T00:34:30;101027.34;;;15.95;89.27
79729;BME280;69218;52.132;5.418;2023-07-31T00:36:56;101018.44;;;15.96;89.05
79729;BME280;69218;52.132;5.418;2023-07-31T00:39:23;101014.94;;;15.95;89.12
79729;BME280;69218;52.132;5.418;2023-07-31T00:41:49;101014.63;;;15.98;89.50
79729;BME280;69218;52.132;5.418;2023-07-31T00:44:16;101017.97;;;16.00;89.86
79729;BME280;69218;52.132;5.418;2023-07-31T00:46:42;101008.91;;;16.03;90.05
79729;BME280;69218;52.132;5.418;2023-07-31T00:49:10;101008.59;;;16.06;91.12
79729;BME280;69218;52.132;5.418;2023-07-31T00:51:37;101000.19;;;16.10;91.28
79729;BME280;69218;52.132;5.418;2023-07-31T00:54:03;101001.69;;;16.13;91.16
79729;BME280;69218;52.132;5.418;2023-07-31T00:56:30;101000.25;;;16.18;91.75
79729;BME280;69218;52.132;5.418;2023-07-31T00:58:57;101005.91;;;16.24;92.61
79729;BME280;69218;52.132;5.418;2023-07-31T01:01:23;101010.75;;;16.28;92.34
79729;BME280;69218;52.132;5.418;2023-07-31T01:03:51;100998.84;;;16.32;92.56
79729;BME280;69218;52.132;5.418;2023-07-31T01:09:20;100999.72;;;16.41;92.71
79729;BME280;69218;52.132;5.418;2023-07-31T01:11:56;100989.84;;;16.43;93.57
79729;BME280;69218;52.132;5.418;2023-07-31T01:14:23;101000.09;;;16.46;93.34
79729;BME280;69218;52.132;5.418;2023-07-31T01:16:49;101006.88;;;16.48;93.37
79729;BME280;69218;52.132;5.418;2023-07-31T01:19:18;101008.56;;;16.50;93.77
79729;BME280;69218;52.132;5.418;2023-07-31T01:24:30;100999.63;;;16.51;93.55
79729;BME280;69218;52.132;5.418;2023-07-31T01:27:20;101008.56;;;16.50;93.67
79729;BME280;69218;52.132;5.418;2023-07-31T01:30:18;100992.81;;;16.48;92.97
79729;BME280;69218;52.132;5.418;2023-07-31T01:32:50;101007.03;;;16.47;92.70
79729;BME280;69218;52.132;5.418;2023-07-31T01:35:17;100999.28;;;16.45;92.78
79729;BME280;69218;52.132;5.418;2023-07-31T01:37:45;101012.34;;;16.47;92.74
79729;BME280;69218;52.132;5.418;2023-07-31T01:40:11;101004.56;;;16.45;92.51
79729;BME280;69218;52.132;5.418;2023-07-31T01:42:38;101003.72;;;16.45;92.67
79729;BME280;69218;52.132;5.418;2023-07-31T01:45:05;100998.94;;;16.48;92.56
79729;BME280;69218;52.132;5.418;2023-07-31T01:47:32;100992.81;;;16.48;92.71
79729;BME280;69218;52.132;5.418;2023-07-31T01:49:58;101004.94;;;16.51;92.73
79729;BME280;69218;52.132;5.418;2023-07-31T01:52:26;100991.53;;;16.52;92.56
79729;BME280;69218;52.132;5.418;2023-07-31T01:54:52;100981.44;;;16.56;93.16
79729;BME280;69218;52.132;5.418;2023-07-31T01:57:21;100979.66;;;16.56;93.16
79729;BME280;69218;52.132;5.418;2023-07-31T01:59:48;100978.66;;;16.57;92.90
79729;BME280;69218;52.132;5.418;2023-07-31T02:02:15;100981.97;;;16.59;92.84
79729;BME280;69218;52.132;5.418;2023-07-31T02:04:42;100985.44;;;16.60;92.96
79729;BME280;69218;52.132;5.418;2023-07-31T02:07:09;100980.97;;;16.60;93.07
79729;BME280;69218;52.132;5.418;2023-07-31T02:09:35;100978.19;;;16.62;92.79
79729;BME280;69218;52.132;5.418;2023-07-31T02:12:02;100977.50;;;16.60;93.06
79729;BME280;69218;52.132;5.418;2023-07-31T02:14:28;100964.28;;;16.60;92.82
79729;BME280;69218;52.132;5.418;2023-07-31T02:16:55;100964.59;;;16.57;92.44
79729;BME280;69218;52.132;5.418;2023-07-31T02:19:21;100960.97;;;16.58;92.89
79729;BME280;69218;52.132;5.418;2023-07-31T02:21:48;100956.66;;;16.57;92.32
79729;BME280;69218;52.132;5.418;2023-07-31T02:24:14;100948.88;;;16.55;92.06
79729;BME280;69218;52.132;5.418;2023-07-31T02:26:40;100949.69;;;16.56;92.50
79729;BME280;69218;52.132;5.418;2023-07-31T02:29:08;100947.91;;;16.56;92.93
79729;BME280;69218;52.132;5.418;2023-07-31T02:31:35;100951.50;;;16.55;92.58
79729;BME280;69218;52.132;5.418;2023-07-31T02:34:02;100949.69;;;16.56;92.38
79729;BME280;69218;52.132;5.418;2023-07-31T02:36:28;100945.56;;;16.53;92.14
79729;BME280;69218;52.132;5.418;2023-07-31T02:38:55;100945.38;;;16.55;92.39
79729;BME280;69218;52.132;5.418;2023-07-31T02:41:21;100946.38;;;16.54;92.03
79729;BME280;69218;52.132;5.418;2023-07-31T02:43:48;100949.03;;;16.54;92.33
79729;BME280;69218;52.132;5.418;2023-07-31T02:46:14;100950.69;;;16.55;91.91
79729;BME280;69218;52.132;5.418;2023-07-31T02:48:41;100960.28;;;16.56;92.02
79729;BME280;69218;52.132;5.418;2023-07-31T02:51:07;100945.38;;;16.55;92.14
79729;BME280;69218;52.132;5.418;2023-07-31T02:53:34;100942.75;;;16.55;92.21
79729;BME280;69218;52.132;5.418;2023-07-31T02:56:00;100930.34;;;16.55;91.97
79729;BME280;69218;52.132;5.418;2023-07-31T02:58:27;100932.97;;;16.55;91.82
79729;BME280;69218;52.132;5.418;2023-07-31T03:00:53;100924.38;;;16.53;92.37
79729;BME280;69218;52.132;5.418;2023-07-31T03:03:20;100932.31;;;16.53;92.35
79729;BME280;69218;52.132;5.418;2023-07-31T03:05:46;100928.84;;;16.53;92.29
79729;BME280;69218;52.132;5.418;2023-07-31T03:08:13;100923.38;;;16.54;92.28
79729;BME280;69218;52.132;5.418;2023-07-31T03:10:39;100930.50;;;16.54;91.87
79729;BME280;69218;52.132;5.418;2023-07-31T03:13:06;100932.16;;;16.55;92.18
79729;BME280;69218;52.132;5.418;2023-07-31T03:15:33;100925.22;;;16.54;92.39
79729;BME280;69218;52.132;5.418;2023-07-31T03:17:59;100924.22;;;16.55;92.37
79729;BME280;69218;52.132;5.418;2023-07-31T03:20:26;100934.13;;;16.53;91.90
79729;BME280;69218;52.132;5.418;2023-07-31T03:22:52;100923.72;;;16.51;92.41
79729;BME280;69218;52.132;5.418;2023-07-31T03:25:19;100933.31;;;16.52;92.23
79729;BME280;69218;52.132;5.418;2023-07-31T03:27:45;100925.38;;;16.52;92.15
79729;BME280;69218;52.132;5.418;2023-07-31T03:30:12;100919.25;;;16.52;91.96
79729;BME280;69218;52.132;5.418;2023-07-31T03:32:38;100918.44;;;16.51;91.43
79729;BME280;69218;52.132;5.418;2023-07-31T03:35:05;100925.38;;;16.52;91.68
79729;BME280;69218;52.132;5.418;2023-07-31T03:37:32;100925.53;;;16.51;91.79
79729;BME280;69218;52.132;5.418;2023-07-31T03:39:59;100927.34;;;16.50;91.79
79729;BME280;69218;52.132;5.418;2023-07-31T03:42:25;100920.38;;;16.49;91.59
79729;BME280;69218;52.132;5.418;2023-07-31T03:44:52;100928.31;;;16.49;91.53
79729;BME280;69218;52.132;5.418;2023-07-31T03:47:18;100918.59;;;16.50;91.66
79729;BME280;69218;52.132;5.418;2023-07-31T03:49:45;100930.31;;;16.47;91.20
79729;BME280;69218;52.132;5.418;2023-07-31T03:52:11;100919.72;;;16.47;91.67
79729;BME280;69218;52.132;5.418;2023-07-31T03:54:37;100924.34;;;16.45;91.20
79729;BME280;69218;52.132;5.418;2023-07-31T03:57:04;100921.53;;;16.46;91.27
79729;BME280;69218;52.132;5.418;2023-07-31T03:59:31;100920.88;;;16.44;91.21
79729;BME280;69218;52.132;5.418;2023-07-31T04:01:57;100911.28;;;16.43;90.75
79729;BME280;69218;52.132;5.418;2023-07-31T04:04:24;100912.28;;;16.42;90.80
79729;BME280;69218;52.132;5.418;2023-07-31T04:06:50;100914.91;;;16.42;90.69
79729;BME280;69218;52.132;5.418;2023-07-31T04:09:18;100901.53;;;16.44;91.56
79729;BME280;69218;52.132;5.418;2023-07-31T04:11:45;100906.97;;;16.42;91.19
79729;BME280;69218;52.132;5.418;2023-07-31T04:14:12;100894.88;;;16.40;90.67
79729;BME280;69218;52.132;5.418;2023-07-31T04:16:39;100898.03;;;16.35;90.72
79729;BME280;69218;52.132;5.418;2023-07-31T04:19:06;100889.22;;;16.35;91.50
79729;BME280;69218;52.132;5.418;2023-07-31T04:21:33;100885.75;;;16.34;90.80
79729;BME280;69218;52.132;5.418;2023-07-31T04:23:59;100881.63;;;16.32;90.96
79729;BME280;69218;52.132;5.418;2023-07-31T04:26:26;100871.69;;;16.34;90.85
79729;BME280;69218;52.132;5.418;2023-07-31T04:28:52;100873.69;;;16.32;91.07
79729;BME280;69218;52.132;5.418;2023-07-31T04:31:19;100872.84;;;16.31;89.87
79729;BME280;69218;52.132;5.418;2023-07-31T04:33:45;100871.88;;;16.32;90.03
79729;BME280;69218;52.132;5.418;2023-07-31T04:36:12;100877.97;;;16.33;90.03
79729;BME280;69218;52.132;5.418;2023-07-31T04:38:38;100883.28;;;16.33;89.77
79729;BME280;69218;52.132;5.418;2023-07-31T04:41:05;100884.25;;;16.32;90.17
79729;BME280;69218;52.132;5.418;2023-07-31T04:43:32;100887.91;;;16.31;89.75
79729;BME280;69218;52.132;5.418;2023-07-31T04:45:58;100882.91;;;16.28;90.06
79729;BME280;69218;52.132;5.418;2023-07-31T04:48:25;100886.41;;;16.28;90.41
79729;BME280;69218;52.132;5.418;2023-07-31T04:50:51;100882.78;;;16.29;91.03
79729;BME280;69218;52.132;5.418;2023-07-31T04:53:18;100875.97;;;16.27;90.69
79729;BME280;69218;52.132;5.418;2023-07-31T04:55:45;100882.09;;;16.27;90.95
79729;BME280;69218;52.132;5.418;2023-07-31T04:58:11;100869.34;;;16.23;90.36
79729;BME280;69218;52.132;5.418;2023-07-31T05:00:38;100867.69;;;16.22;91.26
79729;BME280;69218;52.132;5.418;2023-07-31T05:03:05;100868.53;;;16.22;91.33
79729;BME280;69218;52.132;5.418;2023-07-31T05:05:31;100856.59;;;16.18;91.39
79729;BME280;69218;52.132;5.418;2023-07-31T05:07:58;100854.59;;;16.20;91.59
79729;BME280;69218;52.132;5.418;2023-07-31T05:10:24;100856.41;;;16.19;91.01
79729;BME280;69218;52.132;5.418;2023-07-31T05:12:51;100851.00;;;16.21;91.20
79729;BME280;69218;52.132;5.418;2023-07-31T05:15:17;100851.97;;;16.20;90.60
79729;BME280;69218;52.132;5.418;2023-07-31T05:17:44;100853.47;;;16.23;91.38
79729;BME280;69218;52.132;5.418;2023-07-31T05:20:11;100852.66;;;16.22;91.30
79729;BME280;69218;52.132;5.418;2023-07-31T05:22:37;100858.44;;;16.26;91.31
79729;BME280;69218;52.132;5.418;2023-07-31T05:25:04;100857.13;;;16.22;91.37
79729;BME280;69218;52.132;5.418;2023-07-31T05:27:31;100853.78;;;16.19;91.11
79729;BME280;69218;52.132;5.418;2023-07-31T05:29:57;100846.00;;;16.18;91.60
79729;BME280;69218;52.132;5.418;2023-07-31T05:32:24;100844.19;;;16.18;92.07
79729;BME280;69218;52.132;5.418;2023-07-31T05:34:51;100839.22;;;16.15;91.88
79729;BME280;69218;52.132;5.418;2023-07-31T05:37:19;100843.00;;;16.13;92.35
79729;BME280;69218;52.132;5.418;2023-07-31T05:39:45;100831.94;;;16.09;91.89
79729;BME280;69218;52.132;5.418;2023-07-31T05:42:12;100844.00;;;16.12;92.10
79729;BME280;69218;52.132;5.418;2023-07-31T05:44:38;100828.94;;;16.12;92.19
79729;BME280;69218;52.132;5.418;2023-07-31T05:47:05;100827.97;;;16.13;91.62
79729;BME280;69218;52.132;5.418;2023-07-31T05:49:32;100826.16;;;16.14;92.04
79729;BME280;69218;52.132;5.418;2023-07-31T05:51:58;100821.72;;;16.14;91.74
79729;BME280;69218;52.132;5.418;2023-07-31T05:54:24;100815.44;;;16.15;91.95
79729;BME280;69218;52.132;5.418;2023-07-31T05:56:51;100821.53;;;16.16;92.05
79729;BME280;69218;52.132;5.418;2023-07-31T05:59:17;100804.69;;;16.17;91.97
79729;BME280;69218;52.132;5.418;2023-07-31T06:01:44;100807.16;;;16.18;91.98
79729;BME280;69218;52.132;5.418;2023-07-31T06:04:11;100809.81;;;16.18;91.68
79729;BME280;69218;52.132;5.418;2023-07-31T06:06:37;100803.38;;;16.21;91.93
79729;BME280;69218;52.132;5.418;2023-07-31T06:09:04;100804.22;;;16.22;92.20
79729;BME280;69218;52.132;5.418;2023-07-31T06:11:31;100804.22;;;16.22;91.87
79729;BME280;69218;52.132;5.418;2023-07-31T06:13:57;100801.56;;;16.22;91.67
79729;BME280;69218;52.132;5.418;2023-07-31T06:16:24;100797.94;;;16.23;91.98
79729;BME280;69218;52.132;5.418;2023-07-31T06:18:51;100794.59;;;16.20;92.08
79729;BME280;69218;52.132;5.418;2023-07-31T06:21:18;100797.94;;;16.23;92.00
79729;BME280;69218;52.132;5.418;2023-07-31T06:23:44;100784.53;;;16.24;91.94
79729;BME280;69218;52.132;5.418;2023-07-31T06:26:11;100793.47;;;16.23;92.00
79729;BME280;69218;52.132;5.418;2023-07-31T06:28:37;100794.47;;;16.22;92.39
79729;BME280;69218;52.132;5.418;2023-07-31T06:31:04;100781.22;;;16.22;92.04
79729;BME280;69218;52.132;5.418;2023-07-31T06:33:30;100785.53;;;16.23;91.77
79729;BME280;69218;52.132;5.418;2023-07-31T06:35:57;100776.44;;;16.26;92.28
79729;BME280;69218;52.132;5.418;2023-07-31T06:38:26;100779.72;;;16.28;92.23
79729;BME280;69218;52.132;5.418;2023-07-31T06:40:53;100771.50;;;16.31;92.07
79729;BME280;69218;52.132;5.418;2023-07-31T06:43:20;100759.09;;;16.31;92.29
79729;BME280;69218;52.132;5.418;2023-07-31T06:45:46;100765.03;;;16.33;92.47
79729;BME280;69218;52.132;5.418;2023-07-31T06:48:14;100756.94;;;16.35;92.88
79729;BME280;69218;52.132;5.418;2023-07-31T06:50:41;100754.81;;;16.38;92.67
79729;BME280;69218;52.132;5.418;2023-07-31T06:53:07;100756.97;;;16.43;93.02
79729;BME280;69218;52.132;5.418;2023-07-31T06:55:34;100758.47;;;16.45;92.81
79729;BME280;69218;52.132;5.418;2023-07-31T06:58:01;100754.00;;;16.46;92.71
79729;BME280;69218;52.132;5.418;2023-07-31T07:00:27;100755.34;;;16.50;93.20
79729;BME280;69218;52.132;5.418;2023-07-31T07:02:54;100750.22;;;16.57;92.75
79729;BME280;69218;52.132;5.418;2023-07-31T07:05:21;100742.13;;;16.58;92.54
79729;BME280;69218;52.132;5.418;2023-07-31T07:07:49;100751.38;;;16.62;92.96
79729;BME280;69218;52.132;5.418;2023-07-31T07:10:16;100743.44;;;16.62;92.90
79729;BME280;69218;52.132;5.418;2023-07-31T07:12:44;100746.91;;;16.63;92.89
79729;BME280;69218;52.132;5.418;2023-07-31T07:15:10;100745.75;;;16.65;92.75
79729;BME280;69218;52.132;5.418;2023-07-31T07:17:37;100746.59;;;16.66;92.47
79729;BME280;69218;52.132;5.418;2023-07-31T07:20:04;100749.25;;;16.66;92.68
79729;BME280;69218;52.132;5.418;2023-07-31T07:22:30;100748.06;;;16.68;92.97
79729;BME280;69218;52.132;5.418;2023-07-31T07:24:57;100732.91;;;16.70;93.06
79729;BME280;69218;52.132;5.418;2023-07-31T07:27:23;100737.03;;;16.73;93.42
79729;BME280;69218;52.132;5.418;2023-07-31T07:29:51;100727.91;;;16.75;93.02
79729;BME280;69218;52.132;5.418;2023-07-31T07:32:20;100745.63;;;16.75;92.90
79729;BME280;69218;52.132;5.418;2023-07-31T07:34:48;100735.56;;;16.79;92.69
79729;BME280;69218;52.132;5.418;2023-07-31T07:37:15;100736.19;;;16.81;93.00
79729;BME280;69218;52.132;5.418;2023-07-31T07:39:42;100729.09;;;16.81;93.27
79729;BME280;69218;52.132;5.418;2023-07-31T07:42:09;100737.53;;;16.85;93.15
79729;BME280;69218;52.132;5.418;2023-07-31T07:44:35;100731.06;;;16.87;93.29
79729;BME280;69218;52.132;5.418;2023-07-31T07:47:02;100729.72;;;16.91;93.18
79729;BME280;69218;52.132;5.418;2023-07-31T07:49:28;100717.00;;;16.95;92.56
79729;BME280;69218;52.132;5.418;2023-07-31T07:51:55;100733.72;;;16.95;93.00
79729;BME280;69218;52.132;5.418;2023-07-31T07:54:21;100735.38;;;16.96;93.07
79729;BME280;69218;52.132;5.418;2023-07-31T07:56:48;100723.63;;;16.99;92.61
79729;BME280;69218;52.132;5.418;2023-07-31T07:59:15;100724.75;;;17.05;92.84
79729;BME280;69218;52.132;5.418;2023-07-31T08:01:42;100727.91;;;17.08;93.19
79729;BME280;69218;52.132;5.418;2023-07-31T08:04:09;100715.66;;;17.15;93.00
79729;BME280;69218;52.132;5.418;2023-07-31T08:06:35;100719.31;;;17.14;92.73
79729;BME280;69218;52.132;5.418;2023-07-31T08:09:02;100723.94;;;17.20;93.03
79729;BME280;69218;52.132;5.418;2023-07-31T08:11:33;100726.06;;;17.25;92.70
79729;BME280;69218;52.132;5.418;2023-07-31T08:13:59;100717.28;;;17.24;92.12
79729;BME280;69218;52.132;5.418;2023-07-31T08:16:26;100709.03;;;17.27;92.61
79729;BME280;69218;52.132;5.418;2023-07-31T08:18:53;100708.84;;;17.29;92.65
79729;BME280;69218;52.132;5.418;2023-07-31T08:21:21;100710.16;;;17.33;93.17
79729;BME280;69218;52.132;5.418;2023-07-31T08:23:47;100704.03;;;17.41;92.81
79729;BME280;69218;52.132;5.418;2023-07-31T08:26:18;100707.97;;;17.45;92.21
79729;BME280;69218;52.132;5.418;2023-07-31T08:28:45;100709.97;;;17.43;91.86
79729;BME280;69218;52.132;5.418;2023-07-31T08:31:11;100709.78;;;17.44;92.79
79729;BME280;69218;52.132;5.418;2023-07-31T08:33:38;100692.22;;;17.51;92.64
79729;BME280;69218;52.132;5.418;2023-07-31T08:36:06;100700.50;;;17.56;92.84
79729;BME280;69218;52.132;5.418;2023-07-31T08:38:33;100695.19;;;17.56;92.54
79729;BME280;69218;52.132;5.418;2023-07-31T08:41:00;100691.53;;;17.57;91.56
79729;BME280;69218;52.132;5.418;2023-07-31T08:43:27;100708.09;;;17.60;92.02
79729;BME280;69218;52.132;5.418;2023-07-31T08:45:54;100695.97;;;17.65;91.90
79729;BME280;69218;52.132;5.418;2023-07-31T08:48:22;100701.91;;;17.67;92.39
79729;BME280;69218;52.132;5.418;2023-07-31T08:50:51;100701.75;;;17.69;91.93
79729;BME280;69218;52.132;5.418;2023-07-31T08:53:19;100699.59;;;17.80;92.34
79729;BME280;69218;52.132;5.418;2023-07-31T08:55:46;100701.53;;;17.87;91.98
79729;BME280;69218;52.132;5.418;2023-07-31T08:58:14;100699.69;;;17.95;92.09
79729;BME280;69218;52.132;5.418;2023-07-31T09:00:42;100689.06;;;17.95;91.24
79729;BME280;69218;52.132;5.418;2023-07-31T09:03:15;100695.88;;;17.98;91.58
79729;BME280;69218;52.132;5.418;2023-07-31T09:05:46;100688.69;;;18.06;90.95
79729;BME280;69218;52.132;5.418;2023-07-31T09:08:14;100695.81;;;18.06;92.08
79729;BME280;69218;52.132;5.418;2023-07-31T09:10:43;100683.00;;;18.09;90.25
79729;BME280;69218;52.132;5.418;2023-07-31T09:13:10;100697.09;;;18.10;90.06
79729;BME280;69218;52.132;5.418;2023-07-31T09:15:39;100694.75;;;18.15;91.05
79729;BME280;69218;52.132;5.418;2023-07-31T09:18:07;100698.06;;;18.17;91.03
79729;BME280;69218;52.132;5.418;2023-07-31T09:20:34;100699.06;;;18.16;91.12
79729;BME280;69218;52.132;5.418;2023-07-31T09:23:12;100687.81;;;18.14;91.24
79729;BME280;69218;52.132;5.418;2023-07-31T09:25:40;100686.84;;;18.07;91.16
79729;BME280;69218;52.132;5.418;2023-07-31T09:28:08;100679.09;;;18.05;91.45
79729;BME280;69218;52.132;5.418;2023-07-31T09:30:50;100683.84;;;18.10;92.00
79729;BME280;69218;52.132;5.418;2023-07-31T09:33:18;100681.31;;;18.17;91.09
79729;BME280;69218;52.132;5.418;2023-07-31T09:35:46;100678.84;;;18.15;90.73
79729;BME280;69218;52.132;5.418;2023-07-31T09:38:15;100674.03;;;18.19;91.70
79729;BME280;69218;52.132;5.418;2023-07-31T09:40:47;100672.00;;;18.21;89.82
79729;BME280;69218;52.132;5.418;2023-07-31T09:43:18;100679.59;;;18.24;90.74
79729;BME280;69218;52.132;5.418;2023-07-31T09:45:45;100675.38;;;18.37;91.51
79729;BME280;69218;52.132;5.418;2023-07-31T09:48:16;100689.88;;;18.50;90.71
79729;BME280;69218;52.132;5.418;2023-07-31T09:50:45;100677.81;;;18.47;90.69
79729;BME280;69218;52.132;5.418;2023-07-31T09:53:12;100677.06;;;18.53;91.13
79729;BME280;69218;52.132;5.418;2023-07-31T09:55:40;100673.00;;;18.65;90.89
79729;BME280;69218;52.132;5.418;2023-07-31T09:58:08;100671.00;;;18.67;90.99
79729;BME280;69218;52.132;5.418;2023-07-31T10:00:35;100677.66;;;18.63;90.45
79729;BME280;69218;52.132;5.418;2023-07-31T10:03:05;100675.25;;;18.54;89.23
79729;BME280;69218;52.132;5.418;2023-07-31T10:05:38;100668.94;;;18.55;90.60
79729;BME280;69218;52.132;5.418;2023-07-31T10:08:07;100670.84;;;18.69;90.48
79729;BME280;69218;52.132;5.418;2023-07-31T10:10:41;100663.34;;;18.73;90.18
79729;BME280;69218;52.132;5.418;2023-07-31T10:13:08;100664.97;;;18.74;89.83
79729;BME280;69218;52.132;5.418;2023-07-31T10:15:36;100671.50;;;18.71;89.43
79729;BME280;69218;52.132;5.418;2023-07-31T10:18:05;100674.34;;;18.70;89.57
79729;BME280;69218;52.132;5.418;2023-07-31T10:20:33;100663.91;;;18.68;90.31
79729;BME280;69218;52.132;5.418;2023-07-31T10:23:00;100675.97;;;18.71;90.29
79729;BME280;69218;52.132;5.418;2023-07-31T10:25:27;100672.13;;;18.73;89.22
79729;BME280;69218;52.132;5.418;2023-07-31T10:27:54;100674.25;;;18.78;89.07
79729;BME280;69218;52.132;5.418;2023-07-31T10:30:25;100678.16;;;18.67;89.17
79729;BME280;69218;52.132;5.418;2023-07-31T10:32:53;100681.34;;;18.62;89.43
79729;BME280;69218;52.132;5.418;2023-07-31T10:35:20;100676.22;;;18.61;89.88
79729;BME280;69218;52.132;5.418;2023-07-31T10:37:48;100672.25;;;18.57;89.69
79729;BME280;69218;52.132;5.418;2023-07-31T10:40:16;100665.28;;;18.56;90.34
79729;BME280;69218;52.132;5.418;2023-07-31T10:42:49;100675.00;;;18.63;90.00
79729;BME280;69218;52.132;5.418;2023-07-31T10:48:03;100675.06;;;18.78;89.84
79729;BME280;69218;52.132;5.418;2023-07-31T10:50:32;100678.56;;;18.79;89.65
79729;BME280;69218;52.132;5.418;2023-07-31T10:52:59;100674.25;;;18.78;89.20
79729;BME280;69218;52.132;5.418;2023-07-31T10:55:43;100675.06;;;18.78;88.58
79729;BME280;69218;52.132;5.418;2023-07-31T10:58:18;100676.00;;;18.85;90.07
79729;BME280;69218;52.132;5.418;2023-07-31T11:00:45;100665.00;;;18.88;90.13
79729;BME280;69218;52.132;5.418;2023-07-31T11:03:16;100670.16;;;18.90;89.02
79729;BME280;69218;52.132;5.418;2023-07-31T11:06:03;100669.97;;;18.91;88.57
79729;BME280;69218;52.132;5.418;2023-07-31T11:08:32;100668.97;;;18.92;89.08
79729;BME280;69218;52.132;5.418;2023-07-31T11:13:29;100667.06;;;19.01;87.92
79729;BME280;69218;52.132;5.418;2023-07-31T11:15:56;100670.81;;;19.07;89.78
79729;BME280;69218;52.132;5.418;2023-07-31T11:18:23;100673.66;;;19.05;89.92
79729;BME280;69218;52.132;5.418;2023-07-31T11:20:49;100679.31;;;19.02;90.20
79729;BME280;69218;52.132;5.418;2023-07-31T11:23:18;100667.63;;;18.97;90.14
79729;BME280;69218;52.132;5.418;2023-07-31T11:25:46;100669.53;;;19.03;89.92
79729;BME280;69218;52.132;5.418;2023-07-31T11:28:15;100678.78;;;19.07;89.65
79729;BME280;69218;52.132;5.418;2023-07-31T11:30:43;100673.19;;;19.02;88.31
79729;BME280;69218;52.132;5.418;2023-07-31T11:33:12;100665.06;;;19.03;89.69
79729;BME280;69218;52.132;5.418;2023-07-31T11:35:42;100661.84;;;19.08;89.23
79729;BME280;69218;52.132;5.418;2023-07-31T11:38:22;100660.19;;;19.07;89.48
79729;BME280;69218;52.132;5.418;2023-07-31T11:40:50;100673.56;;;18.99;89.71
79729;BME280;69218;52.132;5.418;2023-07-31T11:43:17;100667.88;;;19.02;89.66
79729;BME280;69218;52.132;5.418;2023-07-31T11:45:46;100658.72;;;19.04;90.38
79729;BME280;69218;52.132;5.418;2023-07-31T11:50:51;100663.13;;;18.97;89.88
79729;BME280;69218;52.132;5.418;2023-07-31T11:53:27;100658.16;;;18.94;88.94
79729;BME280;69218;52.132;5.418;2023-07-31T11:55:57;100657.97;;;18.96;89.35
79729;BME280;69218;52.132;5.418;2023-07-31T11:58:24;100658.53;;;18.91;89.38
79729;BME280;69218;52.132;5.418;2023-07-31T12:00:52;100644.50;;;18.82;89.35
79729;BME280;69218;52.132;5.418;2023-07-31T12:03:19;100650.34;;;18.78;89.54
79729;BME280;69218;52.132;5.418;2023-07-31T12:05:47;100659.31;;;18.77;89.61
79729;BME280;69218;52.132;5.418;2023-07-31T12:08:14;100654.00;;;18.77;89.23
79729;BME280;69218;52.132;5.418;2023-07-31T12:10:42;100655.47;;;18.79;89.76
79729;BME280;69218;52.132;5.418;2023-07-31T12:13:10;100662.63;;;18.79;89.75
79729;BME280;69218;52.132;5.418;2023-07-31T12:15:43;100662.72;;;18.85;89.72
79729;BME280;69218;52.132;5.418;2023-07-31T12:18:15;100655.69;;;18.92;90.20
79729;BME280;69218;52.132;5.418;2023-07-31T12:20:44;100655.25;;;19.04;90.18
79729;BME280;69218;52.132;5.418;2023-07-31T12:23:14;100657.09;;;19.03;89.58
79729;BME280;69218;52.132;5.418;2023-07-31T12:25:41;100653.75;;;19.01;89.92
79729;BME280;69218;52.132;5.418;2023-07-31T12:28:07;100653.56;;;19.03;89.98
79729;BME280;69218;52.132;5.418;2023-07-31T12:30:39;100642.78;;;19.04;89.55
79729;BME280;69218;52.132;5.418;2023-07-31T12:33:13;100638.09;;;19.06;90.27
79729;BME280;69218;52.132;5.418;2023-07-31T12:35:43;100638.56;;;19.10;89.74
79729;BME280;69218;52.132;5.418;2023-07-31T12:38:11;100623.63;;;19.09;89.20
79729;BME280;69218;52.132;5.418;2023-07-31T12:40:38;100629.66;;;19.03;89.05
79729;BME280;69218;52.132;5.418;2023-07-31T12:43:06;100620.03;;;19.02;89.79
79729;BME280;69218;52.132;5.418;2023-07-31T12:45:34;100623.72;;;19.01;89.83
79729;BME280;69218;52.132;5.418;2023-07-31T12:48:01;100625.28;;;19.10;89.55
79729;BME280;69218;52.132;5.418;2023-07-31T12:50:28;100621.44;;;19.12;89.59
79729;BME280;69218;52.132;5.418;2023-07-31T12:52:54;100628.41;;;19.13;89.07
79729;BME280;69218;52.132;5.418;2023-07-31T12:55:24;100628.41;;;19.13;89.14
79729;BME280;69218;52.132;5.418;2023-07-31T12:57:50;100616.31;;;19.11;89.19
79729;BME280;69218;52.132;5.418;2023-07-31T13:00:21;100616.03;;;19.06;87.98
79729;BME280;69218;52.132;5.418;2023-07-31T13:02:48;100609.78;;;19.13;88.92
79729;BME280;69218;52.132;5.418;2023-07-31T13:05:15;100609.41;;;19.16;88.95